Time;durP1;ratioP1;P1;durP2;ratioP2;P2;SDS_P1;SDS_P2;PMS_P1;PMS_P2;Temp;Humidity;BMP_temperature;BMP_pressure;BME280_temperature;BME280_humidity;BME280_pressure;Samples;Min_cycle;Max_cycle;Signal;HPM_P1;HPM_P2
2022/08/09 00:01:27;;;;;;;2.03;1.83;;;17.40;99.90;;;;;;4977466;28;20222;-77
2022/08/09 00:03:53;;;;;;;1.77;1.67;;;17.30;99.90;;;;;;4961344;28;20540;-76
2022/08/09 00:06:19;;;;;;;2.00;1.73;;;17.20;99.90;;;;;;4961182;28;20187;-76
2022/08/09 00:08:47;;;;;;;1.97;1.80;;;17.20;99.90;;;;;;4961543;28;20187;-76
2022/08/09 00:11:13;;;;;;;2.90;1.80;;;17.30;99.90;;;;;;4961676;28;20218;-77
2022/08/09 00:13:39;;;;;;;2.10;1.73;;;17.10;99.90;;;;;;4961132;28;20319;-77
2022/08/09 00:16:05;;;;;;;3.10;1.90;;;17.10;99.90;;;;;;4961134;28;20722;-77
2022/08/09 00:18:32;;;;;;;3.00;1.80;;;17.10;99.90;;;;;;4977061;28;20171;-77
2022/08/09 00:20:58;;;;;;;3.37;1.67;;;16.80;99.90;;;;;;4961403;28;20172;-76
2022/08/09 00:23:23;;;;;;;3.03;1.90;;;16.90;99.90;;;;;;4985259;23;20219;-75
2022/08/09 00:25:49;;;;;;;4.90;1.80;;;16.90;99.90;;;;;;4976904;28;20180;-75
2022/08/09 00:28:15;;;;;;;2.93;2.00;;;17.00;99.90;;;;;;4944649;28;20171;-75
2022/08/09 00:30:40;;;;;;;4.03;1.67;;;17.00;99.90;;;;;;4960687;28;20222;-75
2022/08/09 00:33:06;;;;;;;3.20;1.87;;;16.90;99.90;;;;;;4960466;28;20191;-75
2022/08/09 00:35:32;;;;;;;1.70;1.60;;;16.80;99.90;;;;;;4960737;28;20208;-75
2022/08/09 00:37:57;;;;;;;2.27;1.80;;;16.70;99.90;;;;;;4944732;28;20270;-75
2022/08/09 00:40:23;;;;;;;2.03;1.87;;;16.70;99.90;;;;;;4944615;28;20180;-75
2022/08/09 00:42:48;;;;;;;2.80;2.17;;;16.70;99.90;;;;;;4976670;28;20192;-75
2022/08/09 00:45:14;;;;;;;2.57;2.30;;;16.60;99.90;;;;;;4960471;28;20538;-75
2022/08/09 00:47:40;;;;;;;3.20;2.13;;;16.60;99.90;;;;;;4960193;28;20187;-75
2022/08/09 00:50:06;;;;;;;2.03;1.87;;;16.60;99.90;;;;;;4944436;28;20184;-75
2022/08/09 00:52:32;;;;;;;1.90;1.80;;;16.60;99.90;;;;;;4944414;28;20175;-75
2022/08/09 00:54:59;;;;;;;3.43;1.80;;;16.50;99.90;;;;;;4976288;28;20207;-75
2022/08/09 00:57:24;;;;;;;2.10;1.70;;;16.60;99.90;;;;;;4976077;28;20183;-75
2022/08/09 00:59:50;;;;;;;2.57;2.20;;;16.50;99.90;;;;;;4944193;28;20172;-75
2022/08/09 01:02:20;;;;;;;2.03;1.90;;;16.40;99.90;;;;;;4944088;28;20187;-75
2022/08/09 01:04:52;;;;;;;2.17;1.97;;;16.40;99.90;;;;;;4944547;28;20654;-75
2022/08/09 01:07:24;;;;;;;2.00;1.80;;;16.40;99.90;;;;;;4993099;28;20167;-75
2022/08/09 01:10:23;;;;;;;2.13;1.87;;;16.40;99.90;;;;;;4976206;28;20222;-75
2022/08/09 01:13:03;;;;;;;5.07;2.20;;;16.30;99.90;;;;;;4980354;28;20210;-74
2022/08/09 01:15:36;;;;;;;2.10;1.80;;;16.30;99.90;;;;;;4975824;28;20253;-74
2022/08/09 01:18:06;;;;;;;3.37;2.00;;;16.20;99.90;;;;;;4976013;28;20172;-74
2022/08/09 01:20:53;;;;;;;2.30;2.10;;;16.20;99.90;;;;;;4975923;28;20195;-74
2022/08/09 01:23:37;;;;;;;2.63;2.20;;;16.20;99.90;;;;;;4975555;28;20211;-75
2022/08/09 01:26:08;;;;;;;2.30;1.93;;;16.00;99.90;;;;;;4993169;28;20171;-74
2022/08/09 01:28:36;;;;;;;2.30;2.10;;;15.90;99.90;;;;;;4975839;28;20172;-74
2022/08/09 01:31:05;;;;;;;2.13;2.00;;;16.00;99.90;;;;;;4959663;28;20180;-74
2022/08/09 01:33:37;;;;;;;1.90;1.80;;;15.70;99.90;;;;;;4943837;28;20329;-74
2022/08/09 01:36:15;;;;;;;2.53;2.20;;;15.70;99.90;;;;;;4975631;28;20178;-75
2022/08/09 01:38:44;;;;;;;2.43;2.20;;;15.80;99.90;;;;;;4944057;28;20177;-75
2022/08/09 01:41:13;;;;;;;3.20;2.00;;;15.80;99.90;;;;;;4943833;28;20186;-74
2022/08/09 01:43:43;;;;;;;2.20;2.00;;;15.30;99.90;;;;;;4959491;28;20199;-74
2022/08/09 01:46:10;;;;;;;3.23;2.20;;;15.10;99.90;;;;;;4943594;28;20250;-74
2022/08/09 01:48:35;;;;;;;2.43;2.10;;;15.00;99.90;;;;;;4959391;28;20179;-74
2022/08/09 01:51:02;;;;;;;2.90;2.30;;;15.20;99.90;;;;;;4975557;28;20190;-74
2022/08/09 01:53:29;;;;;;;2.27;2.10;;;15.20;99.90;;;;;;4959184;28;20199;-75
2022/08/09 01:55:55;;;;;;;3.03;2.23;;;15.40;99.90;;;;;;4959295;28;20609;-74
2022/08/09 01:58:22;;;;;;;2.43;2.23;;;15.60;99.90;;;;;;4959368;28;20203;-74
2022/08/09 02:00:49;;;;;;;2.47;2.27;;;15.50;99.90;;;;;;4975559;28;20183;-75
2022/08/09 02:03:17;;;;;;;2.47;2.20;;;15.40;99.90;;;;;;4959176;28;20666;-74
2022/08/09 02:05:44;;;;;;;2.43;2.23;;;15.40;99.90;;;;;;4975343;28;20180;-74
2022/08/09 02:08:13;;;;;;;3.13;2.33;;;15.60;99.90;;;;;;4959014;28;20282;-74
2022/08/09 02:10:42;;;;;;;4.70;2.40;;;15.50;99.90;;;;;;4959207;28;20187;-74
2022/08/09 02:13:11;;;;;;;3.90;2.47;;;15.30;99.90;;;;;;4975150;28;20207;-74
2022/08/09 02:15:40;;;;;;;2.33;2.13;;;15.30;99.90;;;;;;4975089;28;20243;-75
2022/08/09 02:18:07;;;;;;;2.30;2.10;;;15.30;99.90;;;;;;4975235;28;20187;-75
2022/08/09 02:20:37;;;;;;;2.20;2.00;;;15.30;99.90;;;;;;4979228;28;20172;-75
2022/08/09 02:23:06;;;;;;;2.33;1.97;;;15.30;99.90;;;;;;4947193;28;20215;-74
2022/08/09 02:25:36;;;;;;;2.30;2.10;;;15.40;99.90;;;;;;4979040;28;20195;-74
2022/08/09 02:28:15;;;;;;;2.27;2.07;;;15.50;99.90;;;;;;4947413;28;20190;-74
2022/08/09 02:30:46;;;;;;;2.23;2.00;;;15.40;99.90;;;;;;4978929;28;20214;-74
2022/08/09 02:33:18;;;;;;;2.97;2.20;;;15.50;99.90;;;;;;4979529;28;20287;-74
2022/08/09 02:35:46;;;;;;;2.33;2.10;;;15.40;99.90;;;;;;4978862;28;20730;-74
2022/08/09 02:38:16;;;;;;;2.60;2.20;;;15.30;99.90;;;;;;4962947;28;20171;-74
2022/08/09 02:40:44;;;;;;;2.40;2.20;;;15.30;99.90;;;;;;4963276;28;20176;-74
2022/08/09 02:43:11;;;;;;;2.87;2.17;;;15.10;99.90;;;;;;4963158;28;20192;-74
2022/08/09 02:45:41;;;;;;;2.47;2.13;;;14.70;99.90;;;;;;4962709;28;20187;-74
2022/08/09 02:48:10;;;;;;;2.67;2.40;;;14.30;99.90;;;;;;4978689;28;20183;-75
2022/08/09 02:50:40;;;;;;;3.43;2.40;;;14.30;99.90;;;;;;4978562;28;20528;-74
2022/08/09 02:53:12;;;;;;;2.73;2.53;;;14.20;99.90;;;;;;4978590;28;20279;-74
2022/08/09 02:55:43;;;;;;;2.20;2.10;;;14.40;99.90;;;;;;4978556;28;20207;-75
2022/08/09 02:58:10;;;;;;;4.90;2.53;;;14.50;99.90;;;;;;4995855;28;20200;-74
2022/08/09 03:00:39;;;;;;;2.87;2.20;;;14.50;99.90;;;;;;4962472;28;20183;-74
2022/08/09 03:03:05;;;;;;;4.40;2.60;;;14.50;99.90;;;;;;4962408;28;20196;-74
2022/08/09 03:05:32;;;;;;;2.80;2.27;;;14.40;99.90;;;;;;4946383;28;20552;-74
2022/08/09 03:08:00;;;;;;;2.67;2.10;;;14.50;99.90;;;;;;4962116;28;20186;-75
2022/08/09 03:10:27;;;;;;;3.13;2.27;;;14.50;99.90;;;;;;4962137;28;20246;-75
2022/08/09 03:12:54;;;;;;;2.67;2.30;;;14.40;99.90;;;;;;4995514;28;20238;-74
2022/08/09 03:15:21;;;;;;;3.00;2.17;;;14.50;99.90;;;;;;4978125;28;20203;-74
2022/08/09 03:17:47;;;;;;;2.53;2.23;;;14.60;99.90;;;;;;4978327;28;20199;-74
2022/08/09 03:20:14;;;;;;;3.27;2.03;;;14.60;99.90;;;;;;4978260;28;20187;-74
2022/08/09 03:22:43;;;;;;;2.30;2.10;;;14.60;99.90;;;;;;4977971;28;20231;-74
2022/08/09 03:25:10;;;;;;;2.30;2.10;;;14.70;99.90;;;;;;4947011;28;20195;-75
2022/08/09 03:27:36;;;;;;;2.77;2.37;;;14.80;99.90;;;;;;4977761;28;20199;-75
2022/08/09 03:30:03;;;;;;;2.40;2.20;;;14.70;99.90;;;;;;4977863;28;20230;-74
2022/08/09 03:32:32;;;;;;;2.70;2.33;;;14.60;99.90;;;;;;4977128;28;20175;-74
2022/08/09 03:34:59;;;;;;;2.33;1.90;;;14.50;99.90;;;;;;4961877;28;20207;-75
2022/08/09 03:37:25;;;;;;;2.53;2.03;;;14.40;99.90;;;;;;4961569;28;20182;-74
2022/08/09 03:39:51;;;;;;;2.90;2.20;;;14.40;99.90;;;;;;4961991;28;20234;-74
2022/08/09 03:42:16;;;;;;;3.20;2.30;;;14.50;99.90;;;;;;4961495;28;20231;-74
2022/08/09 03:44:42;;;;;;;2.40;2.20;;;14.50;99.90;;;;;;4961393;28;20179;-74
2022/08/09 03:47:08;;;;;;;4.43;2.37;;;14.60;99.90;;;;;;4961705;28;20342;-75
2022/08/09 03:49:35;;;;;;;2.30;2.10;;;14.70;99.90;;;;;;4961471;28;20188;-74
2022/08/09 03:52:01;;;;;;;3.60;2.20;;;14.60;99.90;;;;;;4961382;28;20533;-74
2022/08/09 03:54:33;;;;;;;2.33;2.03;;;14.60;99.90;;;;;;4977344;28;20589;-74
2022/08/09 03:57:05;;;;;;;3.23;2.07;;;14.70;99.90;;;;;;4977295;28;20180;-74
2022/08/09 03:59:31;;;;;;;2.50;2.30;;;14.80;99.90;;;;;;4994716;28;20175;-74
2022/08/09 04:01:58;;;;;;;3.37;2.30;;;14.40;99.90;;;;;;4945253;28;20184;-74
2022/08/09 04:04:26;;;;;;;3.83;2.40;;;14.00;99.90;;;;;;4977451;28;20733;-74
2022/08/09 04:06:52;;;;;;;3.00;2.20;;;14.00;99.90;;;;;;4961229;28;20184;-75
2022/08/09 04:09:18;;;;;;;3.80;2.40;;;14.00;99.90;;;;;;4961130;28;20234;-74
2022/08/09 04:11:49;;;;;;;2.13;1.97;;;14.00;99.90;;;;;;4961359;28;20180;-74
2022/08/09 04:14:19;;;;;;;2.53;2.30;;;13.90;99.90;;;;;;4977030;28;20242;-74
2022/08/09 04:16:44;;;;;;;3.30;2.50;;;13.90;99.90;;;;;;4976978;28;20179;-74
2022/08/09 04:19:10;;;;;;;3.13;2.50;;;13.90;99.90;;;;;;4977408;28;20172;-74
2022/08/09 04:21:35;;;;;;;2.73;2.33;;;14.10;99.90;;;;;;4945069;28;20176;-74
2022/08/09 04:24:01;;;;;;;2.40;2.20;;;14.10;99.90;;;;;;4944954;28;20216;-74
2022/08/09 04:26:26;;;;;;;2.50;2.30;;;14.10;99.90;;;;;;4976748;28;20658;-74
2022/08/09 04:28:52;;;;;;;3.37;2.30;;;14.00;99.90;;;;;;4945115;28;20203;-74
2022/08/09 04:31:17;;;;;;;3.13;2.33;;;14.00;99.90;;;;;;4944713;28;20238;-74
2022/08/09 04:33:43;;;;;;;2.50;2.20;;;14.00;99.90;;;;;;4960451;28;20302;-74
2022/08/09 04:36:09;;;;;;;4.53;2.57;;;14.00;99.90;;;;;;4960608;28;20250;-75
2022/08/09 04:38:34;;;;;;;2.43;2.23;;;14.00;99.90;;;;;;4976967;28;20214;-74
2022/08/09 04:41:00;;;;;;;4.03;2.50;;;14.00;99.90;;;;;;4944856;28;20207;-74
2022/08/09 04:43:25;;;;;;;2.63;2.03;;;13.90;99.90;;;;;;4943400;28;20215;-75
2022/08/09 04:45:51;;;;;;;3.70;2.27;;;14.10;99.90;;;;;;4944702;28;20176;-74
2022/08/09 04:48:17;;;;;;;2.83;2.20;;;14.30;99.90;;;;;;4944406;28;20175;-74
2022/08/09 04:50:43;;;;;;;3.30;2.30;;;14.50;99.90;;;;;;4976621;28;20171;-74
2022/08/09 04:53:10;;;;;;;2.63;2.10;;;14.40;99.90;;;;;;4960880;28;20306;-75
2022/08/09 04:55:39;;;;;;;2.73;1.97;;;14.40;99.90;;;;;;4976318;28;20649;-74
2022/08/09 04:58:06;;;;;;;2.53;2.33;;;14.30;99.90;;;;;;4960488;28;20218;-74
2022/08/09 05:00:33;;;;;;;3.07;2.20;;;14.30;99.90;;;;;;4976097;28;20713;-74
2022/08/09 05:03:04;;;;;;;3.03;2.47;;;14.30;99.90;;;;;;4993491;28;20279;-74
2022/08/09 05:05:30;;;;;;;2.20;1.97;;;14.20;99.90;;;;;;4976186;28;20681;-74
2022/08/09 05:07:56;;;;;;;3.33;2.00;;;14.30;99.90;;;;;;4959767;28;20669;-75
2022/08/09 05:10:22;;;;;;;2.57;2.30;;;14.40;99.90;;;;;;4976145;28;20241;-75
2022/08/09 05:12:47;;;;;;;2.50;2.30;;;14.40;99.90;;;;;;4976148;28;20204;-75
2022/08/09 05:15:13;;;;;;;2.30;2.10;;;14.40;99.90;;;;;;4943838;28;20208;-75
2022/08/09 05:17:39;;;;;;;2.37;2.17;;;14.50;99.90;;;;;;4943642;28;20188;-75
2022/08/09 05:20:05;;;;;;;3.27;2.50;;;14.50;99.90;;;;;;4975943;28;20176;-75
2022/08/09 05:22:31;;;;;;;2.87;2.60;;;14.60;99.90;;;;;;4943765;28;20183;-75
2022/08/09 05:24:57;;;;;;;3.67;2.17;;;14.60;99.90;;;;;;4959751;28;20406;-75
2022/08/09 05:27:22;;;;;;;2.47;2.13;;;14.50;99.90;;;;;;4943778;28;20193;-75
2022/08/09 05:29:48;;;;;;;2.77;2.10;;;14.60;99.90;;;;;;4943807;28;20612;-75
2022/08/09 05:32:13;;;;;;;2.60;2.40;;;14.80;99.90;;;;;;4975663;28;20191;-75
2022/08/09 05:34:39;;;;;;;3.73;2.33;;;14.90;99.90;;;;;;4943550;28;20219;-75
2022/08/09 05:37:05;;;;;;;3.37;2.30;;;14.90;99.90;;;;;;4975890;28;20179;-75
2022/08/09 05:39:32;;;;;;;3.57;2.60;;;14.90;99.90;;;;;;4943376;28;20291;-75
2022/08/09 05:41:58;;;;;;;2.60;2.40;;;15.00;99.90;;;;;;4959666;28;20179;-75
2022/08/09 05:44:26;;;;;;;3.20;2.60;;;15.00;99.90;;;;;;4943692;28;20199;-75
2022/08/09 05:46:52;;;;;;;3.03;2.30;;;15.10;99.90;;;;;;4944306;28;20647;-75
2022/08/09 05:49:17;;;;;;;2.80;2.50;;;15.10;99.90;;;;;;4975405;28;20183;-75
2022/08/09 05:51:43;;;;;;;4.67;2.70;;;15.20;99.90;;;;;;4975593;28;20184;-76
2022/08/09 05:54:09;;;;;;;4.10;3.40;;;15.20;99.90;;;;;;4943198;28;20698;-76
2022/08/09 05:56:34;;;;;;;4.20;3.27;;;15.30;99.90;;;;;;4943420;28;20179;-76
2022/08/09 05:59:00;;;;;;;3.87;2.97;;;15.40;99.90;;;;;;4943292;28;20665;-77
2022/08/09 06:01:27;;;;;;;3.90;3.00;;;15.50;99.90;;;;;;4975680;28;20590;-76
2022/08/09 06:03:53;;;;;;;4.67;3.27;;;15.60;99.90;;;;;;4959236;28;20207;-76
2022/08/09 06:06:19;;;;;;;5.03;3.27;;;15.60;99.90;;;;;;4958949;28;20447;-77
2022/08/09 06:08:44;;;;;;;3.53;3.07;;;15.80;99.90;;;;;;4992679;28;20210;-77
2022/08/09 06:11:10;;;;;;;4.30;3.60;;;15.80;99.90;;;;;;4975373;28;20557;-77
2022/08/09 06:13:37;;;;;;;3.63;2.93;;;15.90;99.90;;;;;;4975347;28;20234;-77
2022/08/09 06:16:03;;;;;;;3.40;3.10;;;15.90;99.90;;;;;;4975282;28;20172;-77
2022/08/09 06:18:29;;;;;;;5.93;2.90;;;15.90;99.90;;;;;;4959013;28;20172;-76
2022/08/09 06:20:56;;;;;;;3.90;2.90;;;16.00;99.90;;;;;;4942953;28;20183;-76
2022/08/09 06:23:22;;;;;;;2.87;2.63;;;16.10;99.90;;;;;;5014219;23;20373;-75
2022/08/09 06:25:48;;;;;;;3.57;2.80;;;16.20;99.90;;;;;;4992434;28;20182;-75
2022/08/09 06:28:14;;;;;;;5.50;2.93;;;16.30;99.90;;;;;;4992501;28;20179;-75
2022/08/09 06:30:41;;;;;;;4.53;2.93;;;16.40;99.90;;;;;;4975316;28;20195;-75
2022/08/09 06:33:07;;;;;;;4.03;2.67;;;16.50;99.90;;;;;;4959028;28;20211;-75
2022/08/09 06:35:33;;;;;;;3.17;2.60;;;16.60;99.90;;;;;;4942942;28;20203;-75
2022/08/09 06:37:59;;;;;;;3.00;2.57;;;16.60;99.90;;;;;;4975083;28;20172;-76
2022/08/09 06:40:25;;;;;;;3.10;2.37;;;16.70;99.90;;;;;;4959165;28;20556;-75
2022/08/09 06:42:51;;;;;;;3.33;2.57;;;16.80;99.90;;;;;;4975044;28;20259;-76
2022/08/09 06:45:16;;;;;;;5.17;3.00;;;16.90;99.90;;;;;;4975046;28;20241;-75
2022/08/09 06:47:42;;;;;;;4.03;2.83;;;17.00;99.90;;;;;;4958620;28;20231;-76
2022/08/09 06:50:08;;;;;;;4.47;2.40;;;17.20;99.90;;;;;;4958871;28;20176;-75
2022/08/09 06:52:34;;;;;;;3.30;2.40;;;17.30;99.90;;;;;;4974792;28;20574;-76
2022/08/09 06:55:00;;;;;;;4.37;2.70;;;17.40;99.90;;;;;;4942980;28;20208;-75
2022/08/09 06:57:25;;;;;;;4.50;2.60;;;17.50;99.90;;;;;;4958842;28;20176;-76
2022/08/09 06:59:52;;;;;;;6.30;2.70;;;17.60;99.90;;;;;;4974833;28;20168;-75
2022/08/09 07:02:18;;;;;;;3.57;2.50;;;17.70;99.90;;;;;;4943285;28;20172;-76
2022/08/09 07:04:44;;;;;;;4.43;2.47;;;17.80;99.90;;;;;;4958563;28;20200;-76
2022/08/09 07:07:10;;;;;;;3.67;2.57;;;17.90;99.90;;;;;;4977274;28;20257;-75
2022/08/09 07:09:35;;;;;;;2.90;2.20;;;18.10;99.90;;;;;;4962533;28;20179;-76
2022/08/09 07:12:01;;;;;;;2.90;2.30;;;18.20;99.90;;;;;;4946195;28;20180;-75
2022/08/09 07:14:27;;;;;;;3.60;2.40;;;18.30;99.90;;;;;;4962056;28;20235;-76
2022/08/09 07:16:53;;;;;;;3.23;2.33;;;18.40;99.90;;;;;;4961858;28;20168;-76
2022/08/09 07:19:18;;;;;;;3.23;2.30;;;18.50;99.90;;;;;;4945931;28;20176;-76
2022/08/09 07:21:44;;;;;;;3.27;2.37;;;18.60;99.90;;;;;;4961919;28;20176;-75
2022/08/09 07:24:10;;;;;;;3.00;2.20;;;18.70;99.90;;;;;;4977956;28;20211;-75
2022/08/09 07:26:36;;;;;;;2.20;2.00;;;18.80;99.90;;;;;;4977783;28;20186;-75
2022/08/09 07:29:04;;;;;;;2.40;2.20;;;19.00;99.90;;;;;;4945944;28;20556;-75
2022/08/09 07:31:29;;;;;;;2.73;2.00;;;19.10;99.90;;;;;;4946543;28;20180;-75
2022/08/09 07:33:55;;;;;;;2.63;2.17;;;19.30;99.90;;;;;;4945571;28;20250;-75
2022/08/09 07:36:21;;;;;;;2.83;2.37;;;19.40;99.90;;;;;;4961718;28;20183;-76
2022/08/09 07:38:46;;;;;;;3.70;2.50;;;19.50;99.90;;;;;;4977688;28;20179;-74
2022/08/09 07:41:12;;;;;;;3.97;2.40;;;19.60;99.90;;;;;;4995079;28;20164;-76
2022/08/09 07:43:38;;;;;;;3.53;2.50;;;19.70;99.90;;;;;;4961451;28;20196;-75
2022/08/09 07:46:04;;;;;;;3.27;2.60;;;19.90;99.90;;;;;;4977754;28;20178;-75
2022/08/09 07:48:30;;;;;;;2.70;2.03;;;20.00;99.90;;;;;;4961394;28;20172;-75
2022/08/09 07:50:59;;;;;;;3.43;2.47;;;20.20;99.90;;;;;;4945619;28;20168;-75
2022/08/09 07:53:25;;;;;;;3.13;2.40;;;20.30;99.90;;;;;;4962019;28;20286;-75
2022/08/09 07:55:50;;;;;;;2.43;2.17;;;20.40;99.90;;;;;;4961242;28;20303;-76
2022/08/09 07:58:16;;;;;;;4.80;2.33;;;20.50;99.90;;;;;;4961192;28;20179;-75
2022/08/09 08:00:41;;;;;;;3.03;2.20;;;20.70;99.90;;;;;;4945422;28;20183;-76
2022/08/09 08:03:07;;;;;;;2.63;2.37;;;20.90;99.90;;;;;;4977161;28;20246;-75
2022/08/09 08:05:33;;;;;;;2.30;2.10;;;21.00;99.90;;;;;;4945206;28;20180;-75
2022/08/09 08:07:58;;;;;;;2.78;2.20;;;21.20;99.90;;;;;;4977028;28;20222;-76
2022/08/09 08:10:24;;;;;;;4.13;2.30;;;21.30;99.90;;;;;;4961281;28;20187;-76
2022/08/09 08:12:50;;;;;;;4.57;2.30;;;21.50;99.90;;;;;;4945050;28;20238;-76
2022/08/09 08:15:19;;;;;;;3.13;2.10;;;21.60;99.90;;;;;;4960935;28;20298;-75
2022/08/09 08:17:50;;;;;;;3.92;2.20;;;21.70;99.90;;;;;;4960602;28;20254;-76
2022/08/09 08:20:17;;;;;;;3.85;2.33;;;21.90;99.90;;;;;;4960932;28;20294;-76
2022/08/09 08:22:43;;;;;;;2.38;2.15;;;22.10;99.90;;;;;;4976695;28;20174;-76
2022/08/09 08:25:09;;;;;;;4.07;2.60;;;22.30;99.90;;;;;;4977167;28;20184;-75
2022/08/09 08:27:35;;;;;;;3.28;2.03;;;22.40;99.90;;;;;;4976681;28;20230;-76
2022/08/09 08:30:01;;;;;;;2.58;2.03;;;22.70;99.90;;;;;;4960801;28;20184;-76
2022/08/09 08:32:26;;;;;;;3.20;1.80;;;22.90;99.80;;;;;;4994216;28;20180;-76
2022/08/09 08:34:53;;;;;;;3.25;2.10;;;23.10;99.90;;;;;;4976722;28;20250;-75
2022/08/09 08:37:19;;;;;;;3.65;2.58;;;23.20;99.40;;;;;;4960662;28;20198;-76
2022/08/09 08:39:45;;;;;;;2.35;1.95;;;23.30;97.80;;;;;;4976803;28;20176;-76
2022/08/09 08:42:12;;;;;;;2.30;2.00;;;23.40;96.50;;;;;;4944596;28;20182;-75
2022/08/09 08:44:40;;;;;;;5.60;2.40;;;23.50;96.90;;;;;;4976438;28;20199;-76
2022/08/09 08:47:06;;;;;;;2.72;2.00;;;23.60;96.10;;;;;;4960415;28;20527;-75
2022/08/09 08:49:36;;;;;;;3.08;1.98;;;23.70;95.20;;;;;;4976661;28;20191;-75
2022/08/09 08:52:01;;;;;;;6.35;2.17;;;23.80;95.20;;;;;;4960523;28;20210;-76
2022/08/09 08:54:27;;;;;;;2.85;1.85;;;24.10;97.10;;;;;;4960360;28;20230;-75
2022/08/09 08:56:53;;;;;;;2.33;2.10;;;24.20;94.10;;;;;;4976003;28;20180;-76
2022/08/09 08:59:19;;;;;;;3.88;2.15;;;24.30;93.20;;;;;;4944130;28;20234;-76
2022/08/09 09:01:47;;;;;;;3.75;2.20;;;24.50;91.00;;;;;;4976055;28;20175;-75
2022/08/09 09:04:13;;;;;;;5.90;2.40;;;24.70;90.50;;;;;;4960104;28;20200;-75
2022/08/09 09:06:42;;;;;;;2.67;2.00;;;24.60;90.30;;;;;;4959792;28;20222;-75
2022/08/09 09:09:08;;;;;;;4.05;2.30;;;24.70;88.80;;;;;;4959997;28;20184;-76
2022/08/09 09:11:35;;;;;;;3.65;2.10;;;24.80;86.80;;;;;;4960123;28;20564;-75
2022/08/09 09:14:10;;;;;;;3.15;2.10;;;25.00;88.00;;;;;;4959634;28;20207;-76
2022/08/09 09:16:35;;;;;;;2.72;1.90;;;25.00;85.20;;;;;;4975864;28;20327;-76
2022/08/09 09:19:10;;;;;;;4.60;2.25;;;25.20;81.70;;;;;;4944003;28;20270;-76
2022/08/09 09:21:53;;;;;;;3.92;2.00;;;25.30;79.70;;;;;;4993046;28;20171;-75
2022/08/09 09:24:18;;;;;;;3.30;2.10;;;25.50;80.70;;;;;;4975764;28;20261;-75
2022/08/09 09:26:57;;;;;;;3.22;2.08;;;25.60;79.80;;;;;;4943626;28;20184;-76
2022/08/09 09:29:30;;;;;;;2.00;1.80;;;25.70;77.90;;;;;;4959129;28;20214;-76
2022/08/09 09:31:57;;;;;;;2.40;1.90;;;25.90;76.80;;;;;;4943850;28;20180;-76
2022/08/09 09:34:22;;;;;;;4.07;2.10;;;25.90;75.50;;;;;;4943514;28;20250;-75
2022/08/09 09:36:48;;;;;;;3.42;1.98;;;26.00;72.20;;;;;;4975335;28;20203;-76
2022/08/09 09:39:16;;;;;;;3.53;1.77;;;26.20;71.50;;;;;;4943620;28;20180;-75
2022/08/09 09:41:42;;;;;;;2.85;1.80;;;26.30;71.90;;;;;;4960074;28;20176;-75
2022/08/09 09:44:08;;;;;;;5.63;2.08;;;26.40;68.90;;;;;;4943423;28;20294;-75
2022/08/09 09:46:36;;;;;;;1.58;1.48;;;26.50;67.20;;;;;;4975720;28;20184;-76
2022/08/09 09:49:04;;;;;;;3.22;1.52;;;26.70;62.30;;;;;;4959440;28;20207;-76
2022/08/09 09:51:31;;;;;;;1.70;1.60;;;26.90;59.50;;;;;;4992927;28;20176;-76
2022/08/09 09:54:08;;;;;;;3.90;1.55;;;27.00;59.60;;;;;;4975617;28;20566;-76
2022/08/09 09:56:37;;;;;;;2.70;1.77;;;27.10;59.40;;;;;;4975376;28;20195;-76
2022/08/09 09:59:04;;;;;;;3.03;1.73;;;27.30;58.20;;;;;;4959517;28;20534;-76
2022/08/09 10:01:30;;;;;;;2.17;1.60;;;27.30;52.30;;;;;;4959356;28;20176;-75
2022/08/09 10:03:56;;;;;;;3.80;1.70;;;27.20;52.30;;;;;;4959131;28;20199;-76
2022/08/09 10:06:22;;;;;;;1.60;1.50;;;27.60;52.30;;;;;;4959288;28;20191;-76
2022/08/09 10:08:49;;;;;;;1.65;1.55;;;27.90;51.90;;;;;;4959511;28;20183;-76
2022/08/09 10:11:26;;;;;;;1.95;1.55;;;28.20;54.10;;;;;;4959472;28;20183;-76
2022/08/09 10:13:54;;;;;;;2.45;1.60;;;28.40;52.30;;;;;;4959097;28;20199;-76
2022/08/09 10:16:35;;;;;;;2.08;1.60;;;28.20;49.10;;;;;;4975414;28;20650;-76
2022/08/09 10:19:06;;;;;;;1.85;1.50;;;27.70;49.60;;;;;;4975307;28;20188;-76
2022/08/09 10:21:33;;;;;;;1.88;1.70;;;27.50;49.10;;;;;;4974957;28;20172;-76
2022/08/09 10:24:03;;;;;;;1.95;1.70;;;27.80;51.50;;;;;;4974954;28;20246;-75
2022/08/09 10:26:30;;;;;;;2.53;1.58;;;28.00;47.00;;;;;;4975043;28;20180;-76
2022/08/09 10:28:57;;;;;;;5.03;1.80;;;28.20;47.30;;;;;;4975039;28;20528;-75
2022/08/09 10:31:22;;;;;;;1.60;1.50;;;28.30;47.70;;;;;;4975339;28;20238;-75
2022/08/09 10:33:49;;;;;;;2.60;1.65;;;28.40;48.20;;;;;;4959100;28;20203;-76
2022/08/09 10:36:15;;;;;;;1.70;1.60;;;28.30;45.70;;;;;;4958796;28;20199;-75
2022/08/09 10:38:46;;;;;;;2.20;1.50;;;27.90;47.70;;;;;;4943079;28;20270;-76
2022/08/09 10:41:14;;;;;;;1.60;1.40;;;28.00;47.80;;;;;;4977860;28;20175;-76
2022/08/09 10:43:45;;;;;;;1.63;1.52;;;28.50;47.30;;;;;;4978532;28;20202;-75
2022/08/09 10:46:48;;;;;;;2.70;1.67;;;28.80;47.50;;;;;;4978540;28;20212;-76
2022/08/09 10:49:52;;;;;;;1.98;1.40;;;28.80;46.10;;;;;;4978626;28;20167;-76
2022/08/09 10:52:51;;;;;;;2.72;1.52;;;29.20;46.40;;;;;;4936012;28;20187;-75
2022/08/09 10:55:29;;;;;;;1.60;1.50;;;29.40;46.80;;;;;;4968000;28;20238;-76
2022/08/09 10:57:55;;;;;;;2.05;1.40;;;29.70;42.30;;;;;;4962435;28;20199;-76
2022/08/09 11:00:41;;;;;;;2.05;1.70;;;29.90;42.30;;;;;;4962376;28;20190;-75
2022/08/09 11:03:20;;;;;;;2.25;1.70;;;30.20;42.30;;;;;;4995435;28;20207;-75
2022/08/09 11:06:14;;;;;;;2.22;1.65;;;30.30;42.80;;;;;;4962509;28;20237;-76
2022/08/09 11:08:44;;;;;;;2.55;1.45;;;30.50;43.30;;;;;;4988279;28;20211;-75
2022/08/09 11:11:11;;;;;;;1.98;1.60;;;30.60;40.00;;;;;;4978444;28;20176;-75
2022/08/09 11:13:36;;;;;;;3.22;1.60;;;30.60;38.60;;;;;;4978228;28;20547;-75
2022/08/09 11:16:30;;;;;;;2.08;1.60;;;30.50;41.50;;;;;;4978046;28;20238;-76
2022/08/09 11:18:56;;;;;;;3.42;1.67;;;30.90;40.80;;;;;;4961845;28;20180;-75
2022/08/09 11:21:50;;;;;;;2.33;1.50;;;30.80;38.70;;;;;;4978093;28;20230;-75
2022/08/09 11:24:20;;;;;;;4.03;1.60;;;31.00;39.30;;;;;;4977789;28;20215;-76
2022/08/09 11:26:47;;;;;;;3.15;1.50;;;30.30;36.40;;;;;;4995192;28;20176;-75
2022/08/09 11:29:50;;;;;;;1.95;1.60;;;30.30;39.70;;;;;;4946228;28;20191;-75
2022/08/09 11:32:40;;;;;;;3.15;1.63;;;30.80;38.50;;;;;;4978123;28;20188;-76
2022/08/09 11:35:13;;;;;;;2.42;1.77;;;30.80;38.70;;;;;;4977750;28;20311;-75
2022/08/09 11:37:41;;;;;;;2.20;1.75;;;31.10;36.80;;;;;;4977464;28;20584;-75
2022/08/09 11:40:12;;;;;;;2.05;1.50;;;31.10;39.80;;;;;;4977812;28;20183;-76
2022/08/09 11:42:42;;;;;;;2.08;1.30;;;31.60;37.20;;;;;;4977804;28;20206;-76
2022/08/09 11:45:24;;;;;;;1.75;1.55;;;31.70;36.80;;;;;;4977664;28;20199;-76
2022/08/09 11:47:53;;;;;;;1.67;1.58;;;31.60;33.20;;;;;;4977370;28;20242;-76
2022/08/09 11:50:20;;;;;;;2.60;1.50;;;31.50;33.10;;;;;;4977574;28;20203;-75
2022/08/09 11:52:58;;;;;;;1.80;1.60;;;31.70;35.40;;;;;;4977075;28;20222;-75
2022/08/09 11:55:38;;;;;;;2.55;1.70;;;32.10;35.10;;;;;;4977536;28;20286;-75
2022/08/09 11:58:27;;;;;;;3.45;1.65;;;32.00;34.50;;;;;;4994731;28;20168;-75
2022/08/09 12:01:00;;;;;;;2.30;1.77;;;32.10;35.00;;;;;;4977235;28;20203;-76
2022/08/09 12:03:27;;;;;;;1.50;1.40;;;32.40;34.60;;;;;;4961632;28;20192;-75
2022/08/09 12:05:56;;;;;;;1.63;1.52;;;31.50;32.60;;;;;;4961250;28;20188;-76
2022/08/09 12:08:23;;;;;;;1.77;1.65;;;32.00;36.30;;;;;;4977120;28;20172;-76
2022/08/09 12:10:59;;;;;;;1.55;1.45;;;31.90;33.90;;;;;;4994647;28;20175;-76
2022/08/09 12:13:32;;;;;;;3.28;1.83;;;32.20;33.70;;;;;;4961221;28;20195;-75
2022/08/09 12:16:06;;;;;;;1.77;1.65;;;31.80;33.90;;;;;;4960964;28;20215;-76
2022/08/09 12:18:33;;;;;;;2.05;1.88;;;31.60;35.30;;;;;;4977051;28;20191;-76
2022/08/09 12:21:02;;;;;;;2.08;1.60;;;31.70;35.30;;;;;;4961152;28;20191;-75
2022/08/09 12:23:27;;;;;;;2.45;1.90;;;31.60;35.00;;;;;;4977051;28;20207;-76
2022/08/09 12:25:54;;;;;;;2.75;1.70;;;30.80;35.30;;;;;;4976959;28;20527;-76
2022/08/09 12:28:22;;;;;;;2.30;1.77;;;30.50;37.30;;;;;;4960548;28;20186;-76
2022/08/09 12:30:48;;;;;;;2.65;1.85;;;30.30;36.60;;;;;;4976859;28;20238;-76
2022/08/09 12:33:15;;;;;;;1.83;1.70;;;30.50;38.10;;;;;;4976615;28;20238;-76
2022/08/09 12:35:42;;;;;;;1.90;1.80;;;31.00;35.50;;;;;;4960710;28;20207;-76
2022/08/09 12:38:21;;;;;;;1.95;1.75;;;31.40;34.80;;;;;;4960446;28;20176;-76
2022/08/09 12:40:49;;;;;;;1.70;1.60;;;31.70;33.80;;;;;;4976591;28;20207;-76
2022/08/09 12:43:18;;;;;;;1.70;1.60;;;31.80;32.10;;;;;;4944771;28;20246;-76
2022/08/09 12:45:45;;;;;;;2.65;2.10;;;31.90;34.10;;;;;;4944734;28;20214;-75
2022/08/09 12:48:13;;;;;;;2.20;1.98;;;32.00;34.70;;;;;;4993731;28;20176;-76
2022/08/09 12:50:39;;;;;;;3.72;1.90;;;32.20;32.10;;;;;;4993747;28;20179;-76
2022/08/09 12:53:05;;;;;;;2.65;1.77;;;32.00;33.60;;;;;;4976504;28;20208;-76
2022/08/09 12:55:32;;;;;;;2.03;1.83;;;31.80;32.60;;;;;;4976326;28;20204;-76